Time;durP1;ratioP1;P1;durP2;ratioP2;P2;SDS_P1;SDS_P2;PMS_P1;PMS_P2;Temp;Humidity;BMP_temperature;BMP_pressure;BME280_temperature;BME280_humidity;BME280_pressure;Samples;Min_cycle;Max_cycle;Signal;HPM_P1;HPM_P2
2020/12/26 00:00:11;;;;;;;25.30;18.37;;;;;;;0.99;100.00;99076.97;2032665;29;20282;-75
2020/12/26 00:01:15;;;;;;;24.08;17.27;;;;;;;0.99;100.00;99071.72;2032607;29;20263;-75
2020/12/26 00:02:16;;;;;;;24.58;16.92;;;;;;;0.97;100.00;99073.78;2033400;29;20233;-76
2020/12/26 00:03:17;;;;;;;26.55;17.08;;;;;;;1.01;100.00;99068.84;2032453;29;20235;-75
2020/12/26 00:04:18;;;;;;;28.97;18.07;;;;;;;0.99;100.00;99069.09;2024906;29;20240;-75
2020/12/26 00:05:18;;;;;;;23.83;16.50;;;;;;;0.99;100.00;99063.03;2032682;29;20223;-75
2020/12/26 00:06:21;;;;;;;24.13;16.50;;;;;;;1.09;100.00;99081.63;2032480;29;20302;-75
2020/12/26 00:07:22;;;;;;;28.70;18.50;;;;;;;1.02;100.00;99078.34;2032178;29;20228;-74
2020/12/26 00:08:23;;;;;;;26.35;17.65;;;;;;;1.00;100.00;99086.44;2032393;29;20238;-75
2020/12/26 00:09:24;;;;;;;25.05;17.08;;;;;;;1.06;100.00;99080.28;2032436;29;20238;-75
2020/12/26 00:10:26;;;;;;;23.90;17.47;;;;;;;0.99;100.00;99063.84;2032656;29;20239;-76
2020/12/26 00:11:27;;;;;;;31.92;18.88;;;;;;;1.08;100.00;99072.94;2032456;29;20727;-76
2020/12/26 00:12:28;;;;;;;28.03;17.73;;;;;;;1.04;100.00;99076.25;2032480;29;20231;-75
2020/12/26 00:13:29;;;;;;;27.70;17.65;;;;;;;1.07;100.00;99088.94;2032812;29;20291;-75
2020/12/26 00:14:32;;;;;;;23.73;17.73;;;;;;;1.04;100.00;99084.97;2032577;29;20291;-74
2020/12/26 00:15:32;;;;;;;24.58;17.83;;;;;;;1.04;100.00;99084.97;2033063;29;20733;-75
2020/12/26 00:16:34;;;;;;;25.20;16.87;;;;;;;1.04;100.00;99089.41;2032535;29;20577;-75
2020/12/26 00:17:34;;;;;;;24.05;17.08;;;;;;;1.08;100.00;99095.81;2032538;29;20641;-75
2020/12/26 00:18:36;;;;;;;26.93;17.53;;;;;;;1.02;100.00;99083.59;2032657;29;20641;-75
2020/12/26 00:19:37;;;;;;;24.13;16.80;;;;;;;0.99;100.00;99081.44;2032039;29;20250;-76
2020/12/26 00:20:38;;;;;;;26.17;17.80;;;;;;;0.99;100.00;99092.75;2024578;29;20244;-76
2020/12/26 00:21:39;;;;;;;28.05;16.02;;;;;;;1.03;100.00;99093.84;2032444;29;20227;-75
2020/12/26 00:22:41;;;;;;;18.48;16.08;;;;;;;0.95;100.00;99077.66;2032420;29;20234;-75
2020/12/26 00:23:42;;;;;;;20.98;16.13;;;;;;;1.01;100.00;99093.28;2033225;29;20235;-75
2020/12/26 00:24:43;;;;;;;21.92;16.25;;;;;;;1.05;100.00;99098.91;2033054;29;20231;-75
2020/12/26 00:25:44;;;;;;;24.15;16.10;;;;;;;1.01;100.00;99082.78;2033207;29;20258;-76
2020/12/26 00:26:45;;;;;;;24.07;16.60;;;;;;;1.07;100.00;99096.84;2032303;29;20230;-75
2020/12/26 00:27:49;;;;;;;22.75;15.30;;;;;;;0.97;100.00;99086.13;2032278;29;20663;-75
2020/12/26 00:28:50;;;;;;;22.23;15.47;;;;;;;1.00;100.00;99096.97;2033215;29;20231;-75
2020/12/26 00:29:51;;;;;;;23.60;16.50;;;;;;;1.04;100.00;99097.28;2032275;29;20238;-75
2020/12/26 00:30:52;;;;;;;25.57;17.20;;;;;;;0.98;100.00;99099.03;2031914;29;20278;-76
2020/12/26 00:31:53;;;;;;;24.58;17.42;;;;;;;1.01;100.00;99095.94;2032958;29;20687;-75
2020/12/26 00:32:54;;;;;;;24.10;16.40;;;;;;;1.01;100.00;99103.81;2033105;29;20307;-75
2020/12/26 00:33:55;;;;;;;23.95;15.77;;;;;;;0.97;100.00;99101.88;2032366;29;20231;-75
2020/12/26 00:34:56;;;;;;;22.23;16.07;;;;;;;1.01;100.00;99095.94;2032407;29;20266;-76
2020/12/26 00:35:57;;;;;;;21.52;16.10;;;;;;;0.96;100.00;99106.34;2033078;29;20234;-75
2020/12/26 00:36:58;;;;;;;19.73;15.60;;;;;;;0.91;100.00;99100.19;2032960;29;20239;-76
2020/12/26 00:38:00;;;;;;;20.77;16.00;;;;;;;0.91;100.00;99102.81;2032135;29;20520;-76
2020/12/26 00:39:01;;;;;;;24.40;17.40;;;;;;;0.87;100.00;99099.03;2032076;29;20223;-76
2020/12/26 00:40:02;;;;;;;21.75;17.05;;;;;;;0.80;100.00;99097.34;2031667;29;20227;-76
2020/12/26 00:41:03;;;;;;;22.90;17.87;;;;;;;0.81;100.00;99092.91;2033145;29;20230;-76
2020/12/26 00:42:04;;;;;;;19.55;17.45;;;;;;;0.80;100.00;99107.84;2032483;29;20220;-76
2020/12/26 00:43:05;;;;;;;20.97;18.20;;;;;;;0.76;100.00;99104.09;2032314;29;20311;-76
2020/12/26 00:44:05;;;;;;;20.33;17.90;;;;;;;0.80;100.00;99099.97;2032244;29;20630;-76
2020/12/26 00:45:07;;;;;;;22.47;18.03;;;;;;;0.82;100.00;99094.50;2032302;29;20247;-76
2020/12/26 00:46:07;;;;;;;19.42;16.65;;;;;;;0.78;100.00;99104.66;2032594;29;20238;-76
2020/12/26 00:47:09;;;;;;;23.30;17.73;;;;;;;0.73;100.00;99101.91;2032257;29;20235;-76
2020/12/26 00:48:10;;;;;;;22.02;17.42;;;;;;;0.64;100.00;99086.75;2032170;29;20238;-76
2020/12/26 00:49:11;;;;;;;22.10;17.83;;;;;;;0.71;100.00;99097.94;2032209;29;20233;-76
2020/12/26 00:50:12;;;;;;;19.30;17.02;;;;;;;0.70;100.00;99096.34;2024437;29;20316;-76
2020/12/26 00:51:14;;;;;;;22.45;17.23;;;;;;;0.66;100.00;99093.38;2032148;29;20682;-76
2020/12/26 00:52:15;;;;;;;21.33;17.10;;;;;;;0.65;100.00;99097.03;2032271;29;20672;-76
2020/12/26 00:53:18;;;;;;;20.63;17.33;;;;;;;0.70;100.00;99094.53;2024366;29;20352;-76
2020/12/26 00:54:19;;;;;;;22.52;15.95;;;;;;;0.73;100.00;99107.19;2032376;29;20713;-76
2020/12/26 00:55:20;;;;;;;20.50;16.33;;;;;;;0.71;100.00;99105.81;2032316;29;20618;-75
2020/12/26 00:56:21;;;;;;;24.88;16.52;;;;;;;0.71;100.00;99104.00;2032053;29;20230;-76
2020/12/26 00:57:22;;;;;;;21.17;15.53;;;;;;;0.74;100.00;99113.22;2032718;29;20234;-75
2020/12/26 00:58:23;;;;;;;26.38;16.95;;;;;;;0.73;100.00;99106.38;2031584;29;20255;-76
2020/12/26 00:59:24;;;;;;;18.03;15.90;;;;;;;0.73;100.00;99101.91;2024081;29;20239;-76
2020/12/26 01:00:25;;;;;;;22.48;16.15;;;;;;;0.69;100.00;99089.47;2032164;29;20346;-76
2020/12/26 01:01:40;;;;;;;21.08;15.38;;;;;;;0.67;100.00;99113.34;2025609;29;20251;-76
2020/12/26 01:02:46;;;;;;;28.15;16.33;;;;;;;0.72;100.00;99110.03;2025361;29;20663;-75
2020/12/26 01:03:51;;;;;;;21.90;15.15;;;;;;;0.62;100.00;99104.56;2024890;29;20228;-76
2020/12/26 01:04:52;;;;;;;22.95;16.38;;;;;;;0.63;100.00;99117.47;2024188;29;20293;-76
2020/12/26 01:05:54;;;;;;;18.90;15.63;;;;;;;0.53;100.00;99102.28;2032360;29;20327;-76
2020/12/26 01:06:54;;;;;;;22.25;16.15;;;;;;;0.39;100.00;99081.75;2032718;29;20239;-76
2020/12/26 01:07:55;;;;;;;22.13;16.20;;;;;;;0.63;100.00;99109.59;2032977;29;20239;-76
2020/12/26 01:08:57;;;;;;;21.00;15.70;;;;;;;0.59;100.00;99118.13;2032686;29;20235;-75
2020/12/26 01:09:58;;;;;;;23.17;16.08;;;;;;;0.61;100.00;99129.19;2031981;29;20219;-76
2020/12/26 01:10:59;;;;;;;21.85;15.80;;;;;;;0.62;100.00;99120.31;2032449;29;20223;-76
2020/12/26 01:12:00;;;;;;;19.40;16.20;;;;;;;0.67;100.00;99125.66;2032054;29;20364;-76
2020/12/26 01:13:01;;;;;;;23.10;16.33;;;;;;;0.57;100.00;99121.00;2032376;29;20223;-77
2020/12/26 01:14:02;;;;;;;22.93;16.77;;;;;;;0.57;100.00;99124.41;2032118;29;20243;-76
2020/12/26 01:15:03;;;;;;;23.67;17.30;;;;;;;0.60;100.00;99119.72;2032262;29;20318;-76
2020/12/26 01:16:04;;;;;;;28.13;17.55;;;;;;;0.61;100.00;99118.69;2032246;29;20219;-76
2020/12/26 01:17:05;;;;;;;20.55;16.83;;;;;;;0.64;100.00;99115.63;2031874;29;20223;-76
2020/12/26 01:18:06;;;;;;;19.63;16.83;;;;;;;0.66;100.00;99132.75;2024220;29;20259;-76
2020/12/26 01:19:07;;;;;;;21.42;18.17;;;;;;;0.61;100.00;99123.94;2032011;29;20601;-76
2020/12/26 01:20:08;;;;;;;26.37;19.03;;;;;;;0.60;100.00;99133.66;2031905;29;20231;-77
2020/12/26 01:21:13;;;;;;;24.55;19.15;;;;;;;0.62;100.00;99130.81;2032157;29;20234;-77
2020/12/26 01:22:14;;;;;;;27.73;19.00;;;;;;;0.56;100.00;99122.81;2032072;29;20302;-77
2020/12/26 01:23:15;;;;;;;25.10;18.20;;;;;;;0.66;100.00;99131.94;2032181;29;20227;-77
2020/12/26 01:24:17;;;;;;;23.70;18.87;;;;;;;0.62;100.00;99130.81;2032894;29;20310;-76
2020/12/26 01:25:18;;;;;;;27.83;18.88;;;;;;;0.51;100.00;99116.66;2031864;29;20581;-77
2020/12/26 01:26:19;;;;;;;23.30;17.73;;;;;;;0.52;100.00;99126.13;2032081;29;20241;-77
2020/12/26 01:27:20;;;;;;;24.70;18.50;;;;;;;0.59;100.00;99126.81;2032669;29;20282;-77
2020/12/26 01:28:21;;;;;;;24.43;18.57;;;;;;;0.57;100.00;99116.53;2031970;29;20227;-77
2020/12/26 01:29:22;;;;;;;21.77;18.48;;;;;;;0.52;100.00;99115.63;2031779;29;20227;-77
2020/12/26 01:30:23;;;;;;;24.70;18.90;;;;;;;0.57;100.00;99124.41;2032675;29;20310;-77
2020/12/26 01:31:24;;;;;;;22.40;17.90;;;;;;;0.60;100.00;99117.09;2032800;29;20235;-76
2020/12/26 01:32:27;;;;;;;26.43;17.73;;;;;;;0.49;100.00;99103.75;2032029;29;20235;-77
2020/12/26 01:33:28;;;;;;;23.13;17.98;;;;;;;0.57;100.00;99121.00;2024543;29;20804;-77
2020/12/26 01:34:29;;;;;;;25.10;18.20;;;;;;;0.47;100.00;99112.91;2032306;29;20360;-77
2020/12/26 01:35:30;;;;;;;25.25;18.63;;;;;;;0.59;100.00;99118.94;2031970;29;20222;-77
2020/12/26 01:36:31;;;;;;;23.07;18.40;;;;;;;0.63;100.00;99119.28;2031960;29;20363;-77
2020/12/26 01:37:32;;;;;;;25.13;18.23;;;;;;;0.59;100.00;99116.31;2032640;29;20227;-77
2020/12/26 01:38:33;;;;;;;20.93;18.67;;;;;;;0.56;100.00;99117.56;2032147;29;20247;-76
2020/12/26 01:39:34;;;;;;;23.02;17.90;;;;;;;0.54;100.00;99118.84;2032039;29;20235;-77
2020/12/26 01:40:36;;;;;;;22.55;18.58;;;;;;;0.50;100.00;99113.22;2031888;29;20220;-76
2020/12/26 01:41:37;;;;;;;24.98;18.95;;;;;;;0.39;100.00;99100.13;2031502;29;20306;-76
2020/12/26 01:42:39;;;;;;;27.53;19.67;;;;;;;0.45;100.00;99115.75;2032623;29;20230;-76
2020/12/26 01:43:52;;;;;;;25.73;18.95;;;;;;;0.39;100.00;99111.41;2032450;29;20238;-76
2020/12/26 01:44:54;;;;;;;23.35;18.70;;;;;;;0.41;100.00;99108.56;2032183;29;20250;-77
2020/12/26 01:45:54;;;;;;;23.42;17.88;;;;;;;0.43;100.00;99109.13;2032687;29;20243;-76
2020/12/26 01:46:55;;;;;;;24.17;19.63;;;;;;;0.42;100.00;99110.16;2031745;29;20231;-76
2020/12/26 01:47:57;;;;;;;23.23;19.35;;;;;;;0.26;100.00;99090.63;2031940;29;20699;-77
2020/12/26 01:48:59;;;;;;;19.23;17.17;;;;;;;0.32;100.00;99096.81;2032092;29;20227;-76
2020/12/26 01:50:01;;;;;;;25.42;19.48;;;;;;;0.32;100.00;99097.59;2031708;29;20241;-77
2020/12/26 01:51:02;;;;;;;23.48;18.10;;;;;;;0.43;100.00;99107.28;2031504;29;20227;-77
2020/12/26 01:52:03;;;;;;;21.67;17.50;;;;;;;0.48;100.00;99104.00;2032301;29;20734;-77
2020/12/26 01:53:04;;;;;;;22.65;17.75;;;;;;;0.46;100.00;99106.06;2032651;29;20231;-76
2020/12/26 01:54:05;;;;;;;22.73;17.90;;;;;;;0.36;100.00;99109.25;2032661;29;20235;-77
2020/12/26 01:55:07;;;;;;;22.58;18.10;;;;;;;0.41;100.00;99106.72;2032888;29;20594;-77
2020/12/26 01:56:08;;;;;;;27.05;17.52;;;;;;;0.38;100.00;99104.56;2032205;29;20261;-77
2020/12/26 01:57:09;;;;;;;23.42;18.35;;;;;;;0.40;100.00;99105.13;2032386;29;20223;-77
2020/12/26 01:58:13;;;;;;;20.80;16.80;;;;;;;0.37;100.00;99113.47;2032279;29;20251;-77
2020/12/26 01:59:14;;;;;;;20.10;17.13;;;;;;;0.29;100.00;99100.69;2031583;29;20650;-77
2020/12/26 02:00:15;;;;;;;22.40;17.60;;;;;;;0.25;100.00;99092.47;2031914;29;20227;-77
2020/12/26 02:01:30;;;;;;;22.38;18.48;;;;;;;0.46;100.00;99117.34;2031832;29;20219;-77
2020/12/26 02:02:31;;;;;;;20.10;16.67;;;;;;;0.44;100.00;99116.00;2031412;29;20777;-77
2020/12/26 02:03:32;;;;;;;25.30;16.92;;;;;;;0.33;100.00;99109.69;2032075;29;20236;-77
2020/12/26 02:04:33;;;;;;;23.00;17.07;;;;;;;0.31;100.00;99114.38;2031406;29;20306;-77
2020/12/26 02:05:34;;;;;;;22.08;17.67;;;;;;;0.34;100.00;99110.50;2024136;29;20232;-76
2020/12/26 02:06:37;;;;;;;19.97;17.37;;;;;;;0.34;100.00;99113.13;2032256;29;20251;-77
2020/12/26 02:07:38;;;;;;;22.50;17.88;;;;;;;0.34;100.00;99113.91;2032012;29;20242;-77
2020/12/26 02:08:39;;;;;;;20.65;16.73;;;;;;;0.32;100.00;99108.09;2032059;29;20230;-77
2020/12/26 02:09:40;;;;;;;20.40;18.02;;;;;;;0.30;100.00;99104.91;2031629;29;20227;-77
2020/12/26 02:10:44;;;;;;;21.63;18.10;;;;;;;0.06;100.00;99064.75;2031665;29;20255;-76
2020/12/26 02:11:44;;;;;;;25.17;18.83;;;;;;;0.32;100.00;99102.06;2032374;29;20622;-76
2020/12/26 02:12:47;;;;;;;22.03;17.80;;;;;;;0.29;100.00;99095.44;2032469;29;20302;-77
2020/12/26 02:13:47;;;;;;;21.13;17.42;;;;;;;0.28;100.00;99094.66;2032462;29;20223;-77
2020/12/26 02:14:49;;;;;;;24.07;18.27;;;;;;;0.31;100.00;99100.47;2031654;29;20782;-77
2020/12/26 02:16:03;;;;;;;25.20;17.88;;;;;;;0.35;100.00;99105.03;2031793;29;20671;-77
2020/12/26 02:17:04;;;;;;;20.40;17.70;;;;;;;0.35;100.00;99091.09;2031285;29;20226;-77
2020/12/26 02:18:04;;;;;;;23.05;17.13;;;;;;;0.35;100.00;99099.78;2031782;29;20701;-77
2020/12/26 02:19:06;;;;;;;22.20;17.43;;;;;;;0.43;100.00;99102.03;2032029;29;20656;-77
2020/12/26 02:20:07;;;;;;;22.75;17.63;;;;;;;0.45;100.00;99105.25;2031718;29;20219;-77
2020/12/26 02:21:08;;;;;;;21.58;17.83;;;;;;;0.39;100.00;99108.78;2032049;29;20227;-76
2020/12/26 02:22:08;;;;;;;22.50;17.75;;;;;;;0.38;100.00;99112.44;2031654;29;20310;-77
2020/12/26 02:23:10;;;;;;;20.23;16.90;;;;;;;0.38;100.00;99109.81;2031724;29;20663;-77
2020/12/26 02:24:11;;;;;;;24.40;19.73;;;;;;;0.38;100.00;99112.44;2031752;29;20694;-76
2020/12/26 02:25:13;;;;;;;23.55;18.35;;;;;;;0.31;100.00;99098.63;2024153;29;20263;-76
2020/12/26 02:26:14;;;;;;;21.27;16.73;;;;;;;0.38;100.00;99109.81;2031612;29;20228;-76
2020/12/26 02:27:15;;;;;;;25.20;18.00;;;;;;;0.37;100.00;99100.34;2032376;29;20258;-76
2020/12/26 02:28:16;;;;;;;24.40;17.92;;;;;;;0.40;100.00;99097.25;2032371;29;20227;-76
2020/12/26 02:29:17;;;;;;;20.30;16.67;;;;;;;0.40;100.00;99097.25;2032506;29;20237;-76
2020/12/26 02:30:18;;;;;;;21.85;17.42;;;;;;;0.37;100.00;99102.19;2031443;29;20218;-76
2020/12/26 02:31:19;;;;;;;20.80;16.30;;;;;;;0.37;100.00;99096.94;2031619;29;20227;-76
2020/12/26 02:32:19;;;;;;;23.02;16.98;;;;;;;0.42;100.00;99097.81;2031962;29;20235;-76
2020/12/26 02:33:21;;;;;;;21.30;16.80;;;;;;;0.35;100.00;99097.16;2031635;29;20231;-76
2020/12/26 02:34:21;;;;;;;25.63;17.55;;;;;;;0.23;100.00;99086.66;2031182;29;20231;-76
2020/12/26 02:35:23;;;;;;;20.23;16.07;;;;;;;0.18;100.00;99078.69;2031679;29;20223;-77
2020/12/26 02:36:23;;;;;;;24.52;17.00;;;;;;;0.26;100.00;99088.00;2031500;29;20231;-76
2020/12/26 02:37:25;;;;;;;22.30;17.20;;;;;;;0.27;100.00;99100.94;2031543;29;20749;-76
2020/12/26 02:38:25;;;;;;;21.00;16.15;;;;;;;0.30;100.00;99101.50;2031550;29;20227;-76
2020/12/26 02:39:27;;;;;;;22.37;17.00;;;;;;;0.27;100.00;99100.13;2032365;29;20239;-76
2020/12/26 02:40:28;;;;;;;21.10;15.90;;;;;;;0.29;100.00;99105.94;2031483;29;20230;-76
2020/12/26 02:41:29;;;;;;;21.70;16.27;;;;;;;0.25;100.00;99094.28;2023939;29;20251;-76
2020/12/26 02:42:31;;;;;;;21.15;16.10;;;;;;;0.34;100.00;99103.41;2023668;29;20232;-76
2020/12/26 02:43:33;;;;;;;21.48;16.02;;;;;;;0.22;100.00;99090.31;2031484;29;20230;-76
2020/12/26 02:44:33;;;;;;;19.10;14.23;;;;;;;0.33;100.00;99112.31;2032408;29;20234;-76
2020/12/26 02:45:35;;;;;;;21.13;14.63;;;;;;;0.34;100.00;99105.25;2032404;29;20227;-76
2020/12/26 02:46:35;;;;;;;20.42;14.65;;;;;;;0.35;100.00;99106.84;2032386;29;20224;-76
2020/12/26 02:47:36;;;;;;;17.40;14.67;;;;;;;0.31;100.00;99096.00;2031584;29;20315;-76
2020/12/26 02:48:37;;;;;;;17.75;14.98;;;;;;;0.37;100.00;99108.22;2031121;29;20619;-76
2020/12/26 02:49:38;;;;;;;16.87;15.07;;;;;;;0.34;100.00;99111.28;2032339;29;20247;-76
2020/12/26 02:50:39;;;;;;;21.15;15.80;;;;;;;0.33;100.00;99106.28;2032148;29;20348;-76
2020/12/26 02:51:40;;;;;;;17.00;15.17;;;;;;;0.38;100.00;99109.81;2032112;29;20330;-76
2020/12/26 02:52:41;;;;;;;19.02;14.77;;;;;;;0.38;100.00;99109.81;2032247;29;20231;-76
2020/12/26 02:53:42;;;;;;;19.63;15.17;;;;;;;0.47;100.00;99116.31;2032320;29;20690;-76
2020/12/26 02:54:44;;;;;;;21.58;15.13;;;;;;;0.39;100.00;99106.16;2032233;29;20235;-76
2020/12/26 02:55:45;;;;;;;19.20;14.88;;;;;;;0.37;100.00;99107.44;2032276;29;20226;-76
2020/12/26 02:56:46;;;;;;;21.35;15.75;;;;;;;0.40;100.00;99118.25;2031378;29;20232;-76
2020/12/26 02:57:47;;;;;;;18.00;15.30;;;;;;;0.43;100.00;99115.16;2031583;29;20274;-76
2020/12/26 02:58:48;;;;;;;18.15;14.43;;;;;;;0.49;100.00;99114.25;2032315;29;20231;-76
2020/12/26 02:59:49;;;;;;;18.20;15.23;;;;;;;0.48;100.00;99119.75;2032142;29;20219;-76
2020/12/26 03:00:50;;;;;;;21.50;15.98;;;;;;;0.46;100.00;99122.59;2031595;29;20246;-76
2020/12/26 03:01:51;;;;;;;19.27;14.63;;;;;;;0.50;100.00;99115.06;2031511;29;20690;-76
2020/12/26 03:02:51;;;;;;;21.13;15.98;;;;;;;0.52;100.00;99123.50;2031541;29;20246;-76
2020/12/26 03:03:52;;;;;;;20.53;15.77;;;;;;;0.48;100.00;99125.78;2033340;29;20306;-76
2020/12/26 03:04:53;;;;;;;17.42;15.27;;;;;;;0.50;100.00;99128.97;2033117;29;20230;-76
2020/12/26 03:05:54;;;;;;;18.03;15.80;;;;;;;0.52;100.00;99120.88;2033082;29;20318;-76
2020/12/26 03:06:55;;;;;;;20.00;15.80;;;;;;;0.52;100.00;99126.94;2033437;29;20626;-76
2020/12/26 03:07:56;;;;;;;18.13;15.10;;;;;;;0.50;100.00;99117.69;2033218;29;20300;-76
2020/12/26 03:08:57;;;;;;;21.10;15.70;;;;;;;0.47;100.00;99126.03;2033415;29;20276;-76
2020/12/26 03:09:59;;;;;;;17.80;15.43;;;;;;;0.39;100.00;99121.13;2033688;29;20306;-76
2020/12/26 03:11:00;;;;;;;20.23;15.68;;;;;;;0.46;100.00;99127.84;2033110;29;20315;-76
2020/12/26 03:12:01;;;;;;;23.33;16.27;;;;;;;0.52;100.00;99132.19;2033212;29;20294;-76
2020/12/26 03:13:02;;;;;;;21.48;15.70;;;;;;;0.51;100.00;99130.56;2032981;29;20227;-76
2020/12/26 03:14:03;;;;;;;20.83;16.17;;;;;;;0.50;100.00;99133.44;2033124;29;20323;-76
2020/12/26 03:15:04;;;;;;;20.55;16.40;;;;;;;0.40;100.00;99134.00;2033736;29;20451;-76
2020/12/26 03:16:05;;;;;;;19.15;16.48;;;;;;;0.43;100.00;99138.78;2033629;29;20238;-76
2020/12/26 03:17:06;;;;;;;20.63;16.88;;;;;;;0.46;100.00;99138.34;2033821;29;20234;-76
2020/12/26 03:18:07;;;;;;;19.33;16.60;;;;;;;0.49;100.00;99135.25;2032498;29;20314;-76
2020/12/26 03:19:08;;;;;;;18.98;16.50;;;;;;;0.43;100.00;99135.38;2032836;29;20366;-76
2020/12/26 03:20:09;;;;;;;17.67;15.77;;;;;;;0.46;100.00;99148.06;2033705;29;20278;-76
2020/12/26 03:21:10;;;;;;;17.52;14.82;;;;;;;0.49;100.00;99142.34;2032831;29;20243;-76
2020/12/26 03:22:11;;;;;;;20.33;15.37;;;;;;;0.46;100.00;99148.06;2033088;29;20754;-76
2020/12/26 03:23:12;;;;;;;19.98;16.95;;;;;;;0.44;100.00;99144.88;2032997;29;20246;-76
2020/12/26 03:24:13;;;;;;;21.33;16.90;;;;;;;0.47;100.00;99149.66;2033090;29;20315;-76
2020/12/26 03:25:14;;;;;;;21.13;16.83;;;;;;;0.47;100.00;99147.81;2033191;29;20231;-76
2020/12/26 03:26:16;;;;;;;20.95;16.80;;;;;;;0.39;100.00;99145.53;2032939;29;20756;-76
2020/12/26 03:27:16;;;;;;;18.63;16.58;;;;;;;0.41;100.00;99147.94;2033439;29;20234;-76
2020/12/26 03:28:18;;;;;;;25.83;16.50;;;;;;;0.38;100.00;99156.25;2033029;29;20318;-76
2020/12/26 03:29:18;;;;;;;21.30;16.30;;;;;;;0.39;100.00;99148.16;2033045;29;20235;-76
2020/12/26 03:30:20;;;;;;;23.63;16.07;;;;;;;0.40;100.00;99162.88;2025515;29;20291;-77
2020/12/26 03:31:20;;;;;;;20.20;15.73;;;;;;;0.37;100.00;99159.91;2032860;29;20220;-76
2020/12/26 03:32:22;;;;;;;22.73;17.60;;;;;;;0.36;100.00;99160.94;2033928;29;20679;-75
2020/12/26 03:33:23;;;;;;;21.20;16.77;;;;;;;0.35;100.00;99167.19;2033110;29;20314;-76
2020/12/26 03:34:24;;;;;;;22.92;17.25;;;;;;;0.42;100.00;99157.41;2033581;29;20779;-76
2020/12/26 03:35:25;;;;;;;25.03;16.83;;;;;;;0.36;100.00;99164.38;2033879;29;20692;-76
2020/12/26 03:36:26;;;;;;;24.23;17.98;;;;;;;0.35;100.00;99165.41;2033583;29;20227;-76
2020/12/26 03:37:27;;;;;;;24.60;17.83;;;;;;;0.35;100.00;99162.78;2032962;29;20267;-76
2020/12/26 03:38:28;;;;;;;23.02;18.67;;;;;;;0.23;100.00;99159.31;2032982;29;20234;-76
2020/12/26 03:39:29;;;;;;;25.07;18.63;;;;;;;0.24;100.00;99156.47;2033489;29;20235;-76
2020/12/26 03:40:30;;;;;;;23.80;18.75;;;;;;;0.34;100.00;99166.41;2034005;29;20227;-76
2020/12/26 03:41:31;;;;;;;25.10;19.13;;;;;;;0.34;100.00;99162.97;2033456;29;20234;-76
2020/12/26 03:42:32;;;;;;;22.90;18.05;;;;;;;0.35;100.00;99169.81;2032768;29;20551;-76
2020/12/26 03:43:33;;;;;;;24.07;18.73;;;;;;;0.24;100.00;99166.97;2033167;29;20250;-76
2020/12/26 03:44:34;;;;;;;25.17;17.92;;;;;;;0.24;100.00;99166.97;2032748;29;20223;-76
2020/12/26 03:45:36;;;;;;;23.83;18.48;;;;;;;0.26;100.00;99172.81;2032837;29;20235;-76
2020/12/26 03:46:36;;;;;;;24.35;18.08;;;;;;;0.22;100.00;99176.09;2033105;29;20231;-76
2020/12/26 03:47:37;;;;;;;23.73;18.70;;;;;;;0.25;100.00;99171.19;2032960;29;20290;-77
2020/12/26 03:48:38;;;;;;;20.73;16.75;;;;;;;0.30;100.00;99175.75;2024992;29;20238;-76
2020/12/26 03:49:40;;;;;;;24.70;17.67;;;;;;;0.33;100.00;99190.25;2032700;29;20251;-76
2020/12/26 03:50:40;;;;;;;24.10;17.73;;;;;;;0.31;100.00;99193.09;2032843;29;20235;-76
2020/12/26 03:51:41;;;;;;;24.80;17.77;;;;;;;0.29;100.00;99184.66;2032348;29;20307;-76
2020/12/26 03:52:42;;;;;;;23.45;17.77;;;;;;;0.29;100.00;99182.03;2032786;29;20573;-76
2020/12/26 03:53:43;;;;;;;23.23;17.23;;;;;;;0.25;100.00;99183.50;2033149;29;20266;-76
2020/12/26 03:54:44;;;;;;;29.95;18.08;;;;;;;0.19;100.00;99182.59;2033398;29;20278;-76
2020/12/26 03:55:46;;;;;;;23.73;17.77;;;;;;;0.13;100.00;99178.25;2033300;29;20282;-76
2020/12/26 03:56:47;;;;;;;22.55;17.50;;;;;;;0.11;100.00;99180.28;2033424;29;20220;-76
2020/12/26 03:57:48;;;;;;;24.47;17.03;;;;;;;0.17;100.00;99194.31;2032635;29;20234;-76
2020/12/26 03:58:49;;;;;;;19.65;17.55;;;;;;;0.16;100.00;99185.66;2033721;29;20223;-76
2020/12/26 03:59:50;;;;;;;25.77;19.13;;;;;;;0.09;100.00;99176.28;2033367;29;20243;-76
2020/12/26 04:00:51;;;;;;;22.13;18.00;;;;;;;0.15;100.00;99180.63;2033316;29;20223;-76
2020/12/26 04:01:52;;;;;;;22.77;18.40;;;;;;;0.17;100.00;99186.44;2032553;29;20231;-76
2020/12/26 04:02:53;;;;;;;22.07;17.23;;;;;;;0.09;100.00;99171.84;2032490;29;20231;-76
2020/12/26 04:03:54;;;;;;;21.00;18.13;;;;;;;0.09;100.00;99179.72;2033293;29;20227;-76
2020/12/26 04:04:55;;;;;;;26.60;18.00;;;;;;;0.04;100.00;99163.06;2033534;29;20239;-76
2020/12/26 04:05:55;;;;;;;24.98;18.15;;;;;;;0.21;100.00;99182.38;2033254;29;20580;-76
2020/12/26 04:06:56;;;;;;;22.50;18.03;;;;;;;0.27;100.00;99192.75;2033242;29;20264;-76
2020/12/26 04:07:57;;;;;;;23.25;17.85;;;;;;;0.25;100.00;99181.66;2033194;29;20239;-76
2020/12/26 04:08:58;;;;;;;23.63;17.47;;;;;;;0.22;100.00;99183.97;2033167;29;20229;-76
2020/12/26 04:09:59;;;;;;;23.73;17.27;;;;;;;0.21;100.00;99177.13;2032811;29;20227;-76
2020/12/26 04:11:01;;;;;;;24.53;18.33;;;;;;;0.16;100.00;99190.88;2032518;29;20340;-76
2020/12/26 04:12:02;;;;;;;24.73;18.02;;;;;;;0.10;100.00;99185.78;2033285;29;20232;-76
2020/12/26 04:13:03;;;;;;;25.07;18.80;;;;;;;0.10;100.00;99178.69;2032746;29;20235;-76
2020/12/26 04:14:04;;;;;;;22.50;18.63;;;;;;;0.13;100.00;99187.94;2032584;29;20231;-75
2020/12/26 04:15:05;;;;;;;20.97;16.60;;;;;;;0.05;100.00;99188.25;2032491;29;20227;-76
2020/12/26 04:16:09;;;;;;;23.13;17.23;;;;;;;0.02;100.00;99186.09;2032583;29;20227;-76
2020/12/26 04:17:10;;;;;;;22.50;18.17;;;;;;;0.01;100.00;99182.66;2032161;29;20580;-76
2020/12/26 04:18:11;;;;;;;21.67;17.63;;;;;;;0.02;100.00;99183.47;2032683;29;20227;-76
2020/12/26 04:19:12;;;;;;;26.57;18.67;;;;;;;-0.04;100.00;99185.16;2032407;29;20315;-76
2020/12/26 04:20:13;;;;;;;21.67;17.70;;;;;;;-0.07;100.00;99190.84;2032766;29;20235;-76
2020/12/26 04:21:14;;;;;;;25.27;19.13;;;;;;;-0.08;100.00;99186.63;2032517;29;20251;-76
2020/12/26 04:22:15;;;;;;;22.85;18.20;;;;;;;-0.11;100.00;99190.47;2032511;29;20227;-75
2020/12/26 04:23:16;;;;;;;22.23;17.17;;;;;;;-0.20;100.00;99172.66;2032621;29;20283;-76
2020/12/26 04:24:17;;;;;;;23.58;17.20;;;;;;;-0.06;100.00;99184.56;2032401;29;20601;-76
2020/12/26 04:25:18;;;;;;;24.10;18.70;;;;;;;-0.17;100.00;99173.03;2033431;29;20306;-76
2020/12/26 04:26:20;;;;;;;24.90;17.67;;;;;;;-0.20;100.00;99165.59;2033206;29;20228;-76
2020/12/26 04:27:21;;;;;;;21.98;16.80;;;;;;;-0.21;100.00;99179.72;2032633;29;20223;-76
2020/12/26 04:28:22;;;;;;;26.67;18.58;;;;;;;-0.20;100.00;99181.31;2032466;29;20230;-76
2020/12/26 04:29:23;;;;;;;23.20;17.80;;;;;;;-0.19;100.00;99184.75;2033077;29;20262;-76
2020/12/26 04:30:24;;;;;;;24.77;17.73;;;;;;;-0.17;100.00;99183.53;2033383;29;20227;-77
2020/12/26 04:31:25;;;;;;;20.57;17.57;;;;;;;-0.24;100.00;99179.38;2033191;29;20310;-76
2020/12/26 04:32:26;;;;;;;23.38;17.67;;;;;;;-0.21;100.00;99178.94;2032957;29;20479;-77
2020/12/26 04:33:27;;;;;;;25.60;18.60;;;;;;;-0.31;100.00;99169.78;2033457;29;20318;-76
2020/12/26 04:34:28;;;;;;;24.67;19.45;;;;;;;-0.21;100.00;99171.88;2032637;29;20226;-76
2020/12/26 04:35:29;;;;;;;26.13;18.67;;;;;;;-0.20;100.00;99180.53;2032839;29;20243;-76
2020/12/26 04:36:30;;;;;;;23.65;17.77;;;;;;;-0.24;100.00;99174.16;2033199;29;20231;-76
2020/12/26 04:37:31;;;;;;;27.02;19.38;;;;;;;-0.25;100.00;99178.59;2033067;29;20279;-76
2020/12/26 04:38:32;;;;;;;22.73;18.53;;;;;;;-0.34;100.00;99170.25;2032568;29;20224;-76
2020/12/26 04:39:33;;;;;;;27.20;18.35;;;;;;;-0.33;100.00;99171.84;2032496;29;20309;-76
2020/12/26 04:40:35;;;;;;;26.43;19.23;;;;;;;-0.30;100.00;99183.69;2033158;29;20227;-76
2020/12/26 04:41:37;;;;;;;23.27;18.35;;;;;;;-0.31;100.00;99182.09;2032426;29;20531;-76